Time;durP1;ratioP1;P1;durP2;ratioP2;P2;SDS_P1;SDS_P2;PMS_P1;PMS_P2;Temp;Humidity;BMP_temperature;BMP_pressure;BME280_temperature;BME280_humidity;BME280_pressure;Samples;Min_cycle;Max_cycle;Signal;HPM_P1;HPM_P2
2023/03/07 00:00:34;;;;;;;1.93;1.70;;;18.50;37.90;;;;;;4988134;28;20432;-68
2023/03/07 00:03:00;;;;;;;1.90;1.80;;;18.50;37.90;;;;;;4987173;28;20430;-67
2023/03/07 00:05:26;;;;;;;1.60;1.50;;;18.50;37.90;;;;;;4997813;28;20223;-67
2023/03/07 00:07:51;;;;;;;2.17;2.07;;;18.50;37.90;;;;;;4992283;28;23217;-68
2023/03/07 00:10:17;;;;;;;1.87;1.77;;;18.50;37.90;;;;;;4985019;28;20340;-68
2023/03/07 00:12:42;;;;;;;1.90;1.80;;;18.50;37.90;;;;;;4990275;28;20307;-68
2023/03/07 00:15:09;;;;;;;2.20;2.00;;;18.40;37.80;;;;;;4988798;28;20228;-68
2023/03/07 00:17:36;;;;;;;1.50;1.40;;;18.50;38.60;;;;;;4997251;28;20259;-67
2023/03/07 00:20:05;;;;;;;2.00;1.90;;;18.50;37.90;;;;;;4998955;28;20945;-68
2023/03/07 00:22:30;;;;;;;1.60;1.50;;;18.50;37.90;;;;;;5001029;28;20867;-68
2023/03/07 00:24:56;;;;;;;1.70;1.50;;;18.50;37.90;;;;;;4987626;28;20465;-67
2023/03/07 00:27:21;;;;;;;1.40;1.30;;;18.50;38.00;;;;;;4994887;28;20222;-68
2023/03/07 00:29:49;;;;;;;1.87;1.77;;;18.50;37.90;;;;;;4991114;28;20239;-68
2023/03/07 00:32:14;;;;;;;3.20;1.60;;;18.50;37.90;;;;;;5003055;28;20331;-68
2023/03/07 00:34:40;;;;;;;2.07;1.93;;;18.50;37.90;;;;;;4994685;28;20525;-68
2023/03/07 00:37:05;;;;;;;1.40;1.30;;;18.50;37.90;;;;;;4998102;28;20562;-68
2023/03/07 00:39:31;;;;;;;1.70;1.60;;;18.50;38.00;;;;;;4996433;28;20286;-68
2023/03/07 00:41:56;;;;;;;1.80;1.70;;;18.50;37.90;;;;;;4988835;28;20224;-67
2023/03/07 00:44:24;;;;;;;2.07;1.97;;;18.40;37.80;;;;;;4991481;28;20325;-67
2023/03/07 00:46:49;;;;;;;1.80;1.70;;;18.40;37.80;;;;;;4986018;28;20241;-68
2023/03/07 00:49:15;;;;;;;1.43;1.33;;;18.40;37.80;;;;;;4995435;28;20423;-68
2023/03/07 00:51:40;;;;;;;1.83;1.73;;;18.50;38.60;;;;;;4993875;28;20270;-68
2023/03/07 00:54:06;;;;;;;1.40;1.30;;;18.40;37.80;;;;;;4991674;28;20240;-68
2023/03/07 00:56:31;;;;;;;2.87;1.60;;;18.50;37.90;;;;;;4995786;28;20227;-68
2023/03/07 00:58:57;;;;;;;1.90;1.57;;;18.50;37.90;;;;;;4986226;28;20224;-68
2023/03/07 01:01:24;;;;;;;1.67;1.57;;;18.40;37.80;;;;;;5023077;28;20223;-68
2023/03/07 01:03:54;;;;;;;1.43;1.33;;;18.40;37.80;;;;;;4992933;28;20428;-68
2023/03/07 01:06:23;;;;;;;1.70;1.60;;;18.40;37.80;;;;;;4994162;28;20439;-68
2023/03/07 01:08:49;;;;;;;1.93;1.83;;;18.40;37.80;;;;;;5002439;28;20566;-68
2023/03/07 01:11:15;;;;;;;1.70;1.60;;;18.40;37.80;;;;;;4993796;28;20969;-68
2023/03/07 01:13:41;;;;;;;1.60;1.50;;;18.50;37.90;;;;;;4999756;28;20250;-67
2023/03/07 01:16:07;;;;;;;1.37;1.27;;;18.40;37.80;;;;;;4992260;28;20470;-68
2023/03/07 01:18:33;;;;;;;1.70;1.60;;;18.40;37.80;;;;;;4997723;28;20733;-68
2023/03/07 01:20:58;;;;;;;1.80;1.70;;;18.40;37.80;;;;;;4998779;28;20216;-67
2023/03/07 01:23:24;;;;;;;1.63;1.53;;;18.40;37.80;;;;;;4987583;28;20316;-68
2023/03/07 01:25:49;;;;;;;1.53;1.43;;;18.40;37.80;;;;;;4983598;28;20584;-68
2023/03/07 01:28:15;;;;;;;1.60;1.50;;;18.40;37.80;;;;;;4986788;28;20227;-68
2023/03/07 01:30:41;;;;;;;1.60;1.50;;;18.40;37.80;;;;;;4993271;28;20239;-68
2023/03/07 01:33:06;;;;;;;1.57;1.47;;;18.40;37.80;;;;;;4991225;28;20223;-67
2023/03/07 01:35:38;;;;;;;1.50;1.40;;;18.40;37.80;;;;;;4992379;28;20298;-68
2023/03/07 01:38:05;;;;;;;1.40;1.30;;;18.40;37.80;;;;;;4981717;28;20232;-68
2023/03/07 01:40:30;;;;;;;1.50;1.40;;;18.40;37.80;;;;;;4993248;28;20432;-68
2023/03/07 01:43:27;;;;;;;2.20;2.07;;;18.40;37.80;;;;;;4990475;28;20877;-67
2023/03/07 01:46:23;;;;;;;1.87;1.40;;;18.40;37.80;;;;;;4994439;28;20247;-68
2023/03/07 01:48:56;;;;;;;1.40;1.30;;;18.40;37.80;;;;;;4994251;28;20446;-68
2023/03/07 01:51:22;;;;;;;1.57;1.47;;;18.40;37.80;;;;;;4998660;28;21404;-68
2023/03/07 01:53:50;;;;;;;1.50;1.40;;;18.40;37.80;;;;;;4999604;28;21188;-68
2023/03/07 01:56:15;;;;;;;1.37;1.27;;;18.40;37.80;;;;;;4991589;28;20533;-68
2023/03/07 01:58:41;;;;;;;1.50;1.40;;;18.40;37.80;;;;;;4975323;28;20462;-68
2023/03/07 02:01:10;;;;;;;1.50;1.40;;;18.40;37.80;;;;;;4995184;28;20250;-68
2023/03/07 02:04:03;;;;;;;1.20;1.10;;;18.40;37.80;;;;;;4993443;28;20231;-68
2023/03/07 02:06:32;;;;;;;1.40;1.30;;;18.40;37.80;;;;;;4997773;28;20923;-68
2023/03/07 02:08:58;;;;;;;1.57;1.47;;;18.40;37.80;;;;;;4998052;28;20424;-68
2023/03/07 02:11:25;;;;;;;1.50;1.40;;;18.40;37.80;;;;;;4987374;28;20965;-67
2023/03/07 02:13:51;;;;;;;1.30;1.20;;;18.40;37.80;;;;;;4982323;28;20462;-68
2023/03/07 02:16:16;;;;;;;1.40;1.30;;;18.40;37.80;;;;;;4997946;28;20795;-67
2023/03/07 02:18:45;;;;;;;1.97;1.43;;;18.40;37.80;;;;;;4993145;28;20267;-68
2023/03/07 02:21:44;;;;;;;1.60;1.50;;;18.40;37.80;;;;;;5000209;28;20745;-68
2023/03/07 02:24:15;;;;;;;1.73;1.63;;;18.40;37.80;;;;;;4992774;28;20435;-69
2023/03/07 02:26:49;;;;;;;1.60;1.40;;;18.40;37.80;;;;;;5000372;28;20524;-68
2023/03/07 02:29:16;;;;;;;1.40;1.30;;;18.40;37.80;;;;;;4999525;28;20430;-68
2023/03/07 02:31:41;;;;;;;1.30;1.20;;;18.40;37.80;;;;;;4994805;28;20437;-68
2023/03/07 02:34:23;;;;;;;1.20;1.10;;;18.40;37.80;;;;;;5013699;28;20478;-68
2023/03/07 02:37:03;;;;;;;1.70;1.60;;;18.40;37.80;;;;;;5000884;28;20617;-69
2023/03/07 02:39:29;;;;;;;1.47;1.37;;;18.40;37.80;;;;;;4983588;28;20424;-68
2023/03/07 02:41:59;;;;;;;1.40;1.30;;;18.40;37.80;;;;;;5000505;28;20911;-68
2023/03/07 02:44:24;;;;;;;1.27;1.17;;;18.40;37.80;;;;;;4995392;28;20460;-68
2023/03/07 02:46:50;;;;;;;1.43;1.33;;;18.40;37.80;;;;;;4984591;28;20463;-68
2023/03/07 02:49:16;;;;;;;1.30;1.20;;;18.40;37.80;;;;;;4985752;28;20747;-68
2023/03/07 02:51:42;;;;;;;1.30;1.20;;;18.40;37.80;;;;;;4995996;28;20234;-68
2023/03/07 02:54:08;;;;;;;1.43;1.33;;;18.40;37.80;;;;;;4996695;28;20476;-68
2023/03/07 02:56:33;;;;;;;1.30;1.20;;;18.40;37.80;;;;;;4989917;28;20223;-67
2023/03/07 02:58:59;;;;;;;1.33;1.23;;;18.40;37.80;;;;;;4984375;28;20267;-68
2023/03/07 03:01:24;;;;;;;1.47;1.37;;;18.40;37.80;;;;;;4992591;28;20337;-68
2023/03/07 03:03:50;;;;;;;1.23;1.13;;;18.40;37.80;;;;;;4996272;28;20227;-68
2023/03/07 03:06:16;;;;;;;2.33;1.13;;;18.40;37.80;;;;;;4995932;28;20231;-68
2023/03/07 03:08:41;;;;;;;1.40;1.30;;;18.40;37.80;;;;;;4999741;28;20236;-68
2023/03/07 03:11:07;;;;;;;1.30;1.20;;;18.40;37.80;;;;;;4993933;28;20302;-68
2023/03/07 03:13:32;;;;;;;1.40;1.30;;;18.40;37.90;;;;;;4982330;28;20247;-69
2023/03/07 03:15:58;;;;;;;1.47;1.37;;;18.40;37.50;;;;;;4995625;28;20566;-68
2023/03/07 03:18:27;;;;;;;1.40;1.30;;;18.40;37.80;;;;;;4990086;28;20223;-68
2023/03/07 03:20:52;;;;;;;1.30;1.20;;;18.40;37.80;;;;;;4994190;28;23334;-69
2023/03/07 03:23:18;;;;;;;1.20;1.10;;;18.40;37.90;;;;;;4994838;28;20469;-68
2023/03/07 03:25:44;;;;;;;1.30;1.20;;;18.30;37.70;;;;;;4992050;28;20281;-69
2023/03/07 03:28:09;;;;;;;2.90;1.20;;;18.40;38.10;;;;;;4995799;28;20617;-68
2023/03/07 03:30:35;;;;;;;1.53;1.43;;;18.30;37.70;;;;;;4987567;28;20372;-68
2023/03/07 03:33:02;;;;;;;1.20;1.10;;;18.30;37.70;;;;;;5000204;28;20267;-68
2023/03/07 03:35:27;;;;;;;1.40;1.30;;;18.30;37.90;;;;;;4996142;28;20243;-68
2023/03/07 03:37:53;;;;;;;2.03;1.40;;;18.40;37.80;;;;;;4991546;28;21003;-69
2023/03/07 03:40:19;;;;;;;1.40;1.10;;;18.30;37.70;;;;;;4991707;28;20216;-67
2023/03/07 03:42:45;;;;;;;1.23;1.13;;;18.30;37.70;;;;;;4996273;28;20285;-68
2023/03/07 03:45:11;;;;;;;1.13;1.03;;;18.30;37.70;;;;;;4986604;28;20468;-66
2023/03/07 03:47:37;;;;;;;1.23;1.13;;;18.30;37.70;;;;;;5002687;28;20219;-68
2023/03/07 03:50:03;;;;;;;1.40;1.30;;;18.30;37.70;;;;;;5002933;28;20419;-69
2023/03/07 03:52:29;;;;;;;1.30;1.20;;;18.30;37.70;;;;;;4995513;28;20216;-68
2023/03/07 03:54:55;;;;;;;1.20;1.10;;;18.30;37.70;;;;;;4997097;28;20936;-69
2023/03/07 03:57:20;;;;;;;1.20;1.10;;;18.30;37.70;;;;;;5002726;28;20230;-68
2023/03/07 03:59:46;;;;;;;1.10;1.00;;;18.30;37.70;;;;;;4987314;28;20224;-69
2023/03/07 04:02:12;;;;;;;1.43;1.20;;;18.30;37.70;;;;;;4995683;28;20225;-68
2023/03/07 04:04:37;;;;;;;1.43;0.90;;;18.30;37.70;;;;;;4990101;28;20232;-68
2023/03/07 04:07:03;;;;;;;1.30;1.20;;;18.30;37.70;;;;;;4989248;28;20793;-69
2023/03/07 04:09:30;;;;;;;1.23;1.13;;;18.30;37.70;;;;;;4990679;28;20346;-69
2023/03/07 04:11:55;;;;;;;1.17;1.07;;;18.30;37.70;;;;;;4997924;28;20436;-69
2023/03/07 04:14:21;;;;;;;1.20;1.10;;;18.30;37.70;;;;;;4994161;28;20488;-69
2023/03/07 04:16:47;;;;;;;1.00;0.90;;;18.30;37.70;;;;;;5001332;28;20215;-69
2023/03/07 04:19:12;;;;;;;1.23;1.10;;;18.30;37.70;;;;;;5000831;28;20755;-69
2023/03/07 04:21:39;;;;;;;1.23;1.13;;;18.30;37.80;;;;;;5003372;28;20744;-69
2023/03/07 04:24:07;;;;;;;1.30;1.20;;;18.30;37.80;;;;;;4993276;28;20250;-69
2023/03/07 04:26:33;;;;;;;1.10;1.10;;;18.30;37.70;;;;;;4995393;28;20444;-69
2023/03/07 04:28:59;;;;;;;1.07;1.00;;;18.30;37.80;;;;;;5001134;28;20498;-69
2023/03/07 04:31:26;;;;;;;0.93;0.93;;;18.30;37.80;;;;;;5002604;28;20565;-69
2023/03/07 04:33:53;;;;;;;1.30;1.20;;;18.30;37.80;;;;;;5001864;28;20216;-69
2023/03/07 04:36:20;;;;;;;1.50;1.40;;;18.30;37.90;;;;;;5002966;28;20538;-69
2023/03/07 04:38:47;;;;;;;1.27;1.17;;;18.30;37.80;;;;;;4989836;28;20473;-70
2023/03/07 04:41:14;;;;;;;1.20;1.10;;;18.30;37.80;;;;;;4990340;28;20482;-70
2023/03/07 04:43:40;;;;;;;1.10;1.00;;;18.30;37.70;;;;;;4988590;28;20497;-69
2023/03/07 04:46:07;;;;;;;2.17;1.30;;;18.30;37.70;;;;;;5000926;28;20475;-69
2023/03/07 04:48:33;;;;;;;1.77;1.43;;;18.30;37.80;;;;;;5001377;28;20225;-69
2023/03/07 04:50:59;;;;;;;1.30;1.20;;;18.30;37.70;;;;;;4988858;28;20425;-68
2023/03/07 04:53:24;;;;;;;2.50;1.30;;;18.30;37.70;;;;;;4990489;28;20239;-68
2023/03/07 04:55:50;;;;;;;1.20;1.10;;;18.30;38.50;;;;;;4985348;28;20240;-68
2023/03/07 04:58:15;;;;;;;1.17;1.07;;;18.30;37.70;;;;;;5001281;28;20306;-69
2023/03/07 05:00:42;;;;;;;1.17;1.07;;;18.30;37.70;;;;;;5001539;28;20219;-68
2023/03/07 05:03:09;;;;;;;1.20;1.10;;;18.40;37.80;;;;;;4996523;28;20289;-68
2023/03/07 05:05:35;;;;;;;1.10;1.00;;;18.40;37.80;;;;;;4983166;28;20420;-72
2023/03/07 05:08:03;;;;;;;1.10;1.00;;;18.30;37.70;;;;;;4997846;28;20450;-70
2023/03/07 05:10:28;;;;;;;1.00;1.00;;;18.40;37.80;;;;;;4996163;28;20221;-69
2023/03/07 05:12:54;;;;;;;1.20;1.10;;;18.40;37.80;;;;;;4989899;28;20416;-72
2023/03/07 05:15:20;;;;;;;1.60;1.07;;;18.40;37.80;;;;;;5027215;28;20885;-72
2023/03/07 05:17:45;;;;;;;1.20;1.10;;;18.40;37.80;;;;;;4994012;28;20272;-69
2023/03/07 05:20:11;;;;;;;1.37;1.27;;;18.40;37.80;;;;;;4997466;28;20719;-69
2023/03/07 05:22:37;;;;;;;1.07;0.97;;;18.50;37.90;;;;;;4996418;28;20247;-70
2023/03/07 05:25:04;;;;;;;0.80;0.80;;;18.50;37.90;;;;;;5000391;28;20908;-69
2023/03/07 05:27:29;;;;;;;1.10;1.00;;;18.50;37.90;;;;;;4997628;28;20431;-69
2023/03/07 05:29:55;;;;;;;1.10;1.00;;;18.50;37.90;;;;;;4992796;28;20427;-69
2023/03/07 05:32:20;;;;;;;1.23;1.13;;;18.50;37.90;;;;;;4983215;28;20754;-69
2023/03/07 05:34:47;;;;;;;1.30;1.20;;;18.50;37.90;;;;;;4983821;28;20236;-68
2023/03/07 05:37:12;;;;;;;1.30;1.20;;;18.50;37.90;;;;;;4992562;28;20215;-69
2023/03/07 05:39:38;;;;;;;1.20;1.10;;;18.50;37.90;;;;;;4990244;28;21163;-69
2023/03/07 05:42:03;;;;;;;0.90;0.90;;;18.50;38.70;;;;;;4978776;28;20219;-68
2023/03/07 05:44:29;;;;;;;1.23;1.13;;;18.50;37.90;;;;;;4993040;28;20228;-68
2023/03/07 05:46:54;;;;;;;1.10;1.00;;;18.50;37.90;;;;;;4991476;28;20249;-67
2023/03/07 05:49:20;;;;;;;1.07;1.00;;;18.50;37.90;;;;;;4993074;28;20443;-67
2023/03/07 05:51:46;;;;;;;1.30;1.20;;;18.50;37.90;;;;;;4985467;28;20259;-67
2023/03/07 05:54:11;;;;;;;1.07;1.00;;;18.50;37.90;;;;;;4986684;28;20231;-67
2023/03/07 05:56:37;;;;;;;1.10;1.00;;;18.50;37.90;;;;;;4978733;28;20303;-68
2023/03/07 05:59:03;;;;;;;1.17;1.07;;;18.50;37.90;;;;;;4990239;28;20278;-68
2023/03/07 06:01:28;;;;;;;1.00;1.00;;;18.50;37.90;;;;;;4986537;28;20323;-67
2023/03/07 06:03:54;;;;;;;1.10;1.00;;;18.50;37.90;;;;;;4981406;28;20455;-67
2023/03/07 06:06:20;;;;;;;0.90;0.90;;;18.50;37.90;;;;;;4978257;28;20260;-68
2023/03/07 06:08:46;;;;;;;1.73;1.10;;;18.50;37.90;;;;;;4984278;28;20292;-68
2023/03/07 06:11:11;;;;;;;1.07;0.97;;;18.40;37.80;;;;;;4997729;28;20619;-68
2023/03/07 06:13:37;;;;;;;1.20;1.10;;;18.50;38.00;;;;;;4974376;28;20229;-68
2023/03/07 06:16:02;;;;;;;1.67;1.10;;;18.50;37.90;;;;;;4992311;28;20347;-68
2023/03/07 06:18:28;;;;;;;1.10;1.00;;;18.50;37.90;;;;;;4989729;28;20215;-65
2023/03/07 06:20:59;;;;;;;1.03;1.00;;;18.50;37.90;;;;;;4986671;28;20222;-68
2023/03/07 06:23:26;;;;;;;1.30;1.20;;;18.40;37.80;;;;;;4986201;28;20230;-65
2023/03/07 06:25:52;;;;;;;0.93;0.93;;;18.40;37.80;;;;;;4981186;28;20494;-69
2023/03/07 06:28:18;;;;;;;1.00;0.90;;;18.50;37.90;;;;;;5011648;28;20470;-68
2023/03/07 06:30:43;;;;;;;1.90;1.70;;;18.50;37.90;;;;;;4990409;28;21560;-68
2023/03/07 06:33:09;;;;;;;3.20;1.70;;;18.50;37.90;;;;;;4994529;28;20730;-69
2023/03/07 06:35:39;;;;;;;1.20;1.10;;;18.50;37.90;;;;;;4990610;28;20236;-69
2023/03/07 06:38:05;;;;;;;1.27;1.17;;;18.50;37.90;;;;;;5000306;28;20246;-68
2023/03/07 06:40:30;;;;;;;1.00;0.90;;;18.50;37.90;;;;;;5000641;28;20787;-69
2023/03/07 06:42:56;;;;;;;1.20;1.10;;;18.50;37.90;;;;;;5000286;28;20432;-67
2023/03/07 06:45:21;;;;;;;1.20;1.10;;;18.50;37.90;;;;;;4995806;28;20238;-68
2023/03/07 06:47:47;;;;;;;1.67;1.10;;;18.50;37.90;;;;;;4995327;28;20277;-68
2023/03/07 06:50:12;;;;;;;1.20;1.10;;;18.50;37.90;;;;;;4998577;28;20231;-67
2023/03/07 06:52:38;;;;;;;3.93;1.13;;;18.50;37.90;;;;;;4992138;28;20208;-68
2023/03/07 06:55:04;;;;;;;1.10;0.93;;;18.40;38.60;;;;;;4996086;28;20597;-68
2023/03/07 06:57:32;;;;;;;1.27;1.10;;;18.40;37.80;;;;;;4984733;28;20726;-67
2023/03/07 06:59:57;;;;;;;1.20;1.10;;;18.40;37.80;;;;;;4980673;28;20543;-68
2023/03/07 07:02:23;;;;;;;1.27;1.17;;;18.50;37.90;;;;;;4982490;28;20925;-67
2023/03/07 07:04:48;;;;;;;1.20;1.10;;;18.50;38.60;;;;;;4992225;28;20220;-68
2023/03/07 07:07:14;;;;;;;1.47;1.10;;;18.40;37.80;;;;;;5009650;28;20215;-67
2023/03/07 07:09:39;;;;;;;1.40;1.30;;;18.40;37.80;;;;;;4983531;28;20227;-67
2023/03/07 07:12:05;;;;;;;1.27;1.17;;;18.40;37.80;;;;;;4994213;28;20223;-67
2023/03/07 07:14:32;;;;;;;1.10;1.00;;;18.40;37.80;;;;;;4948160;28;20248;-67
2023/03/07 07:16:57;;;;;;;1.20;1.10;;;18.40;37.80;;;;;;4977896;28;20238;-67
2023/03/07 07:19:25;;;;;;;1.30;1.20;;;18.40;37.80;;;;;;4988809;28;20969;-67
2023/03/07 07:21:50;;;;;;;1.37;1.27;;;18.40;37.80;;;;;;4993012;28;20233;-66
2023/03/07 07:24:16;;;;;;;1.33;0.93;;;18.50;37.90;;;;;;4988873;28;20935;-66
2023/03/07 07:26:41;;;;;;;1.30;1.20;;;18.40;37.80;;;;;;4993159;28;20235;-66
2023/03/07 07:29:07;;;;;;;1.40;1.30;;;18.40;37.80;;;;;;4987051;28;20223;-67
2023/03/07 07:31:33;;;;;;;1.37;1.27;;;18.40;37.80;;;;;;4979314;28;20695;-67
2023/03/07 07:33:58;;;;;;;1.70;1.20;;;18.40;37.80;;;;;;4981395;28;20227;-67
2023/03/07 07:36:24;;;;;;;1.30;1.20;;;18.40;37.80;;;;;;4992692;28;20227;-67
2023/03/07 07:38:50;;;;;;;1.40;1.30;;;18.40;37.90;;;;;;4968365;28;20235;-67
2023/03/07 07:41:17;;;;;;;1.23;1.13;;;18.40;37.80;;;;;;4980661;28;20219;-66
2023/03/07 07:43:45;;;;;;;1.57;1.30;;;18.40;37.80;;;;;;4989555;28;20258;-67
2023/03/07 07:46:11;;;;;;;2.30;1.30;;;18.50;37.90;;;;;;4980043;28;20447;-67
2023/03/07 07:48:37;;;;;;;1.20;1.10;;;18.40;37.80;;;;;;4988428;28;20515;-67
2023/03/07 07:51:03;;;;;;;1.27;1.17;;;18.40;38.60;;;;;;4990377;28;20544;-67
2023/03/07 07:53:29;;;;;;;1.20;1.10;;;18.40;37.80;;;;;;4996064;28;20276;-67
2023/03/07 07:55:55;;;;;;;1.30;1.20;;;18.40;37.80;;;;;;5009891;28;20837;-67
2023/03/07 07:58:21;;;;;;;4.20;2.30;;;18.40;37.80;;;;;;4991763;28;20992;-67
2023/03/07 08:00:46;;;;;;;11.93;3.90;;;18.40;37.80;;;;;;5014420;28;20223;-66
2023/03/07 08:03:12;;;;;;;24.63;5.40;;;18.40;37.80;;;;;;4994093;28;20227;-66
2023/03/07 08:05:43;;;;;;;21.60;5.97;;;18.50;37.90;;;;;;4996978;28;20231;-66
2023/03/07 08:08:09;;;;;;;24.60;6.13;;;18.50;37.90;;;;;;4992110;28;20310;-67
2023/03/07 08:10:35;;;;;;;12.40;4.73;;;18.50;37.90;;;;;;4997509;28;20445;-67
2023/03/07 08:13:00;;;;;;;8.70;4.30;;;18.50;37.90;;;;;;4988329;28;20220;-67
2023/03/07 08:15:26;;;;;;;11.47;5.27;;;18.50;37.90;;;;;;4995033;28;20246;-67
2023/03/07 08:17:51;;;;;;;15.57;4.50;;;18.40;37.80;;;;;;4997131;28;20215;-67
2023/03/07 08:20:21;;;;;;;13.90;4.53;;;18.50;37.90;;;;;;5002187;28;20258;-67
2023/03/07 08:22:48;;;;;;;17.60;4.87;;;18.40;37.80;;;;;;4996514;28;20224;-66
2023/03/07 08:25:20;;;;;;;18.03;4.63;;;18.50;37.90;;;;;;4986431;28;20449;-67
2023/03/07 08:27:47;;;;;;;13.57;4.50;;;18.40;37.80;;;;;;4982927;28;20440;-66
2023/03/07 08:30:14;;;;;;;20.30;4.20;;;18.40;37.80;;;;;;4989008;28;20804;-66
2023/03/07 08:32:39;;;;;;;11.53;4.47;;;18.40;37.90;;;;;;4993847;28;20441;-66
2023/03/07 08:35:05;;;;;;;6.87;4.10;;;18.40;37.90;;;;;;4987453;28;20438;-67
2023/03/07 08:37:31;;;;;;;5.37;3.40;;;18.40;37.80;;;;;;4998435;28;20258;-67
2023/03/07 08:39:56;;;;;;;4.80;3.20;;;18.40;37.80;;;;;;5001070;28;20489;-67
2023/03/07 08:42:22;;;;;;;4.70;3.10;;;18.40;37.80;;;;;;4989556;28;20690;-66
2023/03/07 08:44:47;;;;;;;5.00;3.17;;;18.40;37.80;;;;;;4990655;28;20551;-67
2023/03/07 08:47:13;;;;;;;7.30;3.20;;;18.40;37.80;;;;;;4992985;28;20235;-67
2023/03/07 08:49:39;;;;;;;10.03;3.20;;;18.40;37.80;;;;;;4999712;28;20709;-67
2023/03/07 08:52:05;;;;;;;5.10;3.10;;;18.40;37.90;;;;;;4995410;28;20312;-66
2023/03/07 08:54:31;;;;;;;5.00;3.03;;;18.40;37.80;;;;;;4994099;28;20579;-67
2023/03/07 08:56:57;;;;;;;6.70;3.13;;;18.40;37.80;;;;;;5001945;28;20567;-67
2023/03/07 08:59:23;;;;;;;3.03;2.73;;;18.40;37.80;;;;;;4998217;28;20312;-66
2023/03/07 09:01:49;;;;;;;6.97;3.33;;;18.40;37.80;;;;;;4999787;28;20449;-67
2023/03/07 09:04:14;;;;;;;4.50;2.53;;;18.40;37.80;;;;;;4992057;28;20219;-66
2023/03/07 09:06:39;;;;;;;3.30;2.50;;;18.40;37.90;;;;;;4994504;28;20227;-66
2023/03/07 09:09:05;;;;;;;2.40;2.20;;;18.40;37.80;;;;;;4980324;28;20361;-66
2023/03/07 09:11:31;;;;;;;2.37;2.03;;;18.40;37.80;;;;;;4988941;28;20884;-66
2023/03/07 09:13:56;;;;;;;3.90;2.40;;;18.40;37.90;;;;;;4983116;28;20255;-66
2023/03/07 09:16:22;;;;;;;2.27;2.07;;;18.40;37.90;;;;;;4977316;28;20224;-66
2023/03/07 09:18:48;;;;;;;3.30;1.97;;;18.40;37.80;;;;;;4984374;28;20253;-67
2023/03/07 09:21:14;;;;;;;4.40;2.27;;;18.40;37.80;;;;;;4992076;28;20229;-67
2023/03/07 09:23:41;;;;;;;2.63;2.20;;;18.40;37.80;;;;;;4975600;28;20224;-66
2023/03/07 09:26:06;;;;;;;3.77;2.30;;;18.40;37.80;;;;;;4979081;28;20889;-67
2023/03/07 09:28:32;;;;;;;4.60;2.07;;;18.40;37.80;;;;;;4986742;28;20461;-66
2023/03/07 09:30:57;;;;;;;2.10;1.90;;;18.40;37.80;;;;;;4973733;28;20538;-66
2023/03/07 09:33:23;;;;;;;3.13;2.07;;;18.40;37.80;;;;;;4975483;28;20228;-66
2023/03/07 09:35:48;;;;;;;2.30;2.10;;;18.40;37.80;;;;;;4985179;28;20236;-67
2023/03/07 09:38:14;;;;;;;1.90;1.73;;;18.40;37.80;;;;;;4984525;28;20296;-66
2023/03/07 09:40:39;;;;;;;3.47;2.10;;;18.40;38.60;;;;;;4983195;28;20247;-65
2023/03/07 09:43:21;;;;;;;2.93;1.90;;;18.40;37.80;;;;;;4979899;28;20259;-66
2023/03/07 09:46:10;;;;;;;2.63;1.73;;;18.40;37.80;;;;;;4980899;28;20252;-67
2023/03/07 09:48:35;;;;;;;2.20;2.10;;;18.40;37.80;;;;;;4972869;28;20476;-67
2023/03/07 09:51:20;;;;;;;1.70;1.60;;;18.40;37.90;;;;;;4984051;28;20552;-67
2023/03/07 09:53:55;;;;;;;1.90;1.70;;;18.40;37.80;;;;;;4978366;28;20579;-67
2023/03/07 09:56:26;;;;;;;2.87;2.00;;;18.40;37.80;;;;;;4985913;28;20439;-66
2023/03/07 09:59:02;;;;;;;2.63;1.73;;;18.40;37.80;;;;;;4990643;28;20439;-67
2023/03/07 10:01:30;;;;;;;1.83;1.73;;;18.40;37.80;;;;;;4988058;28;20526;-67
2023/03/07 10:04:01;;;;;;;1.90;1.80;;;18.40;37.80;;;;;;4976049;28;21003;-67
2023/03/07 10:06:38;;;;;;;2.03;1.57;;;18.40;37.80;;;;;;4973768;28;20437;-67
2023/03/07 10:09:10;;;;;;;2.40;2.00;;;18.40;37.80;;;;;;4979024;28;20468;-67
2023/03/07 10:12:03;;;;;;;2.10;1.90;;;18.40;37.80;;;;;;4983854;28;20459;-67
2023/03/07 10:14:50;;;;;;;2.90;2.07;;;18.40;37.80;;;;;;4986319;28;20473;-67
2023/03/07 10:17:25;;;;;;;2.87;2.33;;;18.40;37.80;;;;;;4988271;28;20451;-67
2023/03/07 10:19:53;;;;;;;2.43;2.10;;;18.40;37.90;;;;;;4973446;28;20993;-67
2023/03/07 10:22:23;;;;;;;1.80;1.70;;;18.40;37.80;;;;;;4985277;28;20469;-67
2023/03/07 10:25:00;;;;;;;1.93;1.73;;;18.40;37.80;;;;;;4980625;28;20436;-67
2023/03/07 10:27:28;;;;;;;2.63;1.77;;;18.40;37.90;;;;;;4988286;28;20472;-67
2023/03/07 10:29:57;;;;;;;2.30;2.03;;;18.40;37.80;;;;;;4989770;28;20432;-67
2023/03/07 10:32:30;;;;;;;1.60;1.50;;;18.40;37.80;;;;;;4995612;28;20444;-67
2023/03/07 10:35:14;;;;;;;3.37;1.63;;;18.40;37.80;;;;;;4982021;28;20967;-66
2023/03/07 10:37:50;;;;;;;1.73;1.63;;;18.40;37.80;;;;;;4988955;28;20636;-67
2023/03/07 10:40:26;;;;;;;1.93;1.70;;;18.40;37.80;;;;;;4983985;28;20546;-68
2023/03/07 10:42:53;;;;;;;3.73;1.60;;;18.40;37.90;;;;;;4978264;28;20555;-66
2023/03/07 10:45:19;;;;;;;1.83;1.60;;;18.30;37.90;;;;;;4987862;28;20472;-67
2023/03/07 10:47:45;;;;;;;2.23;1.53;;;18.40;37.90;;;;;;4980576;28;20441;-66
2023/03/07 10:50:44;;;;;;;1.50;1.40;;;18.40;37.90;;;;;;4986774;28;20245;-67
2023/03/07 10:53:22;;;;;;;2.20;1.90;;;18.40;37.90;;;;;;4995999;28;22095;-68
2023/03/07 10:55:48;;;;;;;2.10;1.80;;;18.40;37.90;;;;;;4986152;28;20519;-67
2023/03/07 10:58:18;;;;;;;6.27;2.10;;;18.40;38.10;;;;;;4984028;28;20453;-67
2023/03/07 11:00:56;;;;;;;2.03;1.83;;;18.40;38.10;;;;;;4969307;28;20450;-67
2023/03/07 11:03:26;;;;;;;5.00;2.00;;;18.40;38.90;;;;;;4990927;28;20486;-67
2023/03/07 11:05:51;;;;;;;4.60;1.70;;;18.30;38.00;;;;;;4978811;28;20990;-67
2023/03/07 11:08:35;;;;;;;2.93;1.93;;;18.30;38.00;;;;;;4992056;28;20935;-67
2023/03/07 11:11:02;;;;;;;2.17;1.50;;;18.40;38.00;;;;;;4977653;28;20232;-67
2023/03/07 11:13:28;;;;;;;2.30;1.40;;;18.40;38.10;;;;;;4966431;28;20440;-67
2023/03/07 11:16:16;;;;;;;2.77;1.53;;;18.40;38.10;;;;;;4977020;28;20519;-67
2023/03/07 11:18:43;;;;;;;2.30;1.50;;;18.30;38.00;;;;;;4985361;28;20458;-67
2023/03/07 11:21:31;;;;;;;2.97;1.40;;;18.40;38.20;;;;;;4988253;28;20471;-68
2023/03/07 11:24:02;;;;;;;1.93;1.53;;;18.30;38.00;;;;;;4980810;28;20947;-67
2023/03/07 11:26:31;;;;;;;1.40;1.30;;;18.30;38.10;;;;;;4991725;28;20868;-68
2023/03/07 11:29:13;;;;;;;2.13;1.60;;;18.30;38.10;;;;;;4979652;28;20469;-68
2023/03/07 11:32:08;;;;;;;2.13;1.30;;;18.30;38.10;;;;;;4976983;28;20787;-68
2023/03/07 11:34:46;;;;;;;2.03;1.53;;;18.30;38.90;;;;;;4982918;28;20480;-68
2023/03/07 11:37:17;;;;;;;1.93;1.30;;;18.30;38.20;;;;;;4991522;28;20439;-67
2023/03/07 11:40:02;;;;;;;2.57;1.50;;;18.30;38.20;;;;;;4980772;28;20546;-67
2023/03/07 11:42:33;;;;;;;1.70;1.20;;;18.30;38.10;;;;;;4988885;28;20455;-69
2023/03/07 11:45:33;;;;;;;4.23;1.20;;;18.30;38.10;;;;;;4970865;28;21223;-69
2023/03/07 11:48:21;;;;;;;1.70;1.30;;;18.30;38.10;;;;;;4989147;28;22011;-68
2023/03/07 11:50:53;;;;;;;1.63;1.53;;;18.30;38.10;;;;;;4985263;28;20431;-68
2023/03/07 11:53:19;;;;;;;2.87;1.20;;;18.30;38.20;;;;;;4995242;28;20454;-68
2023/03/07 11:56:08;;;;;;;4.07;2.03;;;18.30;38.20;;;;;;4991880;28;20465;-68
2023/03/07 11:58:53;;;;;;;2.73;1.30;;;18.30;38.20;;;;;;5008694;28;20227;-68
2023/03/07 12:01:44;;;;;;;1.60;1.50;;;18.30;38.20;;;;;;4989502;28;20435;-67
2023/03/07 12:04:19;;;;;;;2.60;1.20;;;18.30;38.20;;;;;;4987554;28;20464;-68
2023/03/07 12:06:47;;;;;;;3.30;1.23;;;18.30;38.30;;;;;;5001295;28;20442;-70
2023/03/07 12:09:34;;;;;;;2.70;1.33;;;18.30;38.30;;;;;;4994320;28;20451;-67
2023/03/07 12:12:09;;;;;;;2.13;1.93;;;18.30;38.20;;;;;;5011197;28;20484;-67
2023/03/07 12:14:50;;;;;;;3.20;1.40;;;18.30;38.20;;;;;;4998974;28;23806;-68
2023/03/07 12:17:41;;;;;;;2.13;1.33;;;18.30;38.20;;;;;;4999360;28;20456;-68
2023/03/07 12:20:13;;;;;;;1.73;1.20;;;18.30;38.20;;;;;;4979665;28;20431;-67
2023/03/07 12:23:03;;;;;;;2.07;0.93;;;18.30;38.20;;;;;;4985351;28;20943;-67
2023/03/07 12:25:42;;;;;;;5.00;1.10;;;18.30;38.20;;;;;;4986842;28;20985;-67
2023/03/07 12:28:28;;;;;;;1.77;1.40;;;18.30;38.10;;;;;;4985624;28;20431;-67
2023/03/07 12:31:15;;;;;;;1.50;1.07;;;18.30;38.10;;;;;;4987144;28;20435;-67
2023/03/07 12:34:04;;;;;;;2.40;1.00;;;18.30;38.10;;;;;;4970641;28;20467;-67
2023/03/07 12:36:56;;;;;;;1.53;1.10;;;18.30;38.00;;;;;;4976855;28;20900;-67
2023/03/07 12:39:37;;;;;;;1.90;1.23;;;18.30;38.00;;;;;;4986325;28;20464;-67
2023/03/07 12:42:33;;;;;;;1.37;1.27;;;18.30;37.80;;;;;;4977259;28;20703;-67
2023/03/07 12:45:18;;;;;;;1.43;1.23;;;18.20;37.70;;;;;;4979140;28;21059;-67
2023/03/07 12:47:51;;;;;;;2.87;1.10;;;18.20;37.70;;;;;;4984812;28;20954;-67
2023/03/07 12:50:38;;;;;;;1.30;1.00;;;18.20;37.60;;;;;;4974926;28;20451;-67
2023/03/07 12:53:48;;;;;;;1.83;1.10;;;18.20;37.70;;;;;;4986318;28;20525;-67
2023/03/07 12:56:23;;;;;;;1.20;1.10;;;18.20;37.60;;;;;;4981002;28;20900;-68